Time;durP1;ratioP1;P1;durP2;ratioP2;P2;SDS_P1;SDS_P2;PMS_P1;PMS_P2;Temp;Humidity;BMP_temperature;BMP_pressure;BME280_temperature;BME280_humidity;BME280_pressure;Samples;Min_cycle;Max_cycle;Signal;HPM_P1;HPM_P2
2022/04/30 00:01:01;;;;;;;12.93;10.38;;;;;;;13.60;61.25;100781.31;10228976;28;20790;-63
2022/04/30 00:06:02;;;;;;;12.27;10.23;;;;;;;13.51;61.24;100780.28;10229689;28;20054;-64
2022/04/30 00:11:05;;;;;;;15.15;11.43;;;;;;;13.49;62.07;100790.25;10246432;28;20049;-64
2022/04/30 00:16:06;;;;;;;14.20;10.30;;;;;;;13.44;61.64;100785.28;10234339;28;20078;-64
2022/04/30 00:21:07;;;;;;;14.07;9.70;;;;;;;13.43;62.56;100804.97;10241853;28;20579;-63
2022/04/30 00:26:09;;;;;;;15.65;10.88;;;;;;;13.49;61.83;100824.16;10232706;28;20212;-66
2022/04/30 00:31:10;;;;;;;12.25;10.18;;;;;;;13.34;62.58;100808.41;10226865;28;20122;-64
2022/04/30 00:36:12;;;;;;;12.40;9.43;;;;;;;13.19;63.57;100817.69;10245499;28;20049;-64
2022/04/30 00:41:15;;;;;;;11.82;10.18;;;;;;;13.08;63.98;100822.09;10229696;28;20058;-64
2022/04/30 00:46:18;;;;;;;13.50;10.02;;;;;;;13.15;63.10;100822.44;10228375;28;20055;-63
2022/04/30 00:51:22;;;;;;;13.17;10.80;;;;;;;13.31;64.11;100843.41;10233831;28;20054;-65
2022/04/30 00:56:29;;;;;;;14.45;10.38;;;;;;;12.89;65.27;100848.59;10253635;28;20168;-63
2022/04/30 01:01:33;;;;;;;14.48;11.13;;;;;;;12.79;66.71;100856.53;10234193;28;20058;-63
2022/04/30 01:06:57;;;;;;;;;;;;;;;12.98;66.86;100857.72;10230648;28;20035;-64
2022/04/30 01:12:06;;;;;;;13.52;10.45;;;;;;;13.08;67.03;100859.50;10234052;28;20288;-64
2022/04/30 01:17:09;;;;;;;12.82;11.10;;;;;;;12.93;67.03;100859.91;10233346;28;20213;-64
2022/04/30 01:22:28;;;;;;;15.05;10.40;;;;;;;12.83;67.87;100849.09;10236317;28;20051;-65
2022/04/30 01:27:30;;;;;;;13.57;10.82;;;;;;;12.99;67.87;100865.59;10234953;28;20282;-63
2022/04/30 01:37:56;;;;;;;13.20;11.15;;;;;;;12.60;69.89;100842.94;10237279;28;20054;-66
2022/04/30 01:43:01;;;;;;;12.77;10.95;;;;;;;12.88;69.77;100853.13;10236253;28;20073;-64
2022/04/30 01:48:03;;;;;;;;;;;;;;;12.73;71.14;100860.53;10237453;28;20134;-65
2022/04/30 01:53:04;;;;;;;12.70;10.77;;;;;;;12.71;71.05;100846.44;10232787;28;20005;-65
2022/04/30 01:58:06;;;;;;;14.15;10.73;;;;;;;13.00;70.36;100847.72;10237076;28;20127;-63
2022/04/30 02:03:09;;;;;;;14.00;11.75;;;;;;;12.92;71.17;100851.03;10246658;28;20534;-64
2022/04/30 02:08:12;;;;;;;13.65;10.75;;;;;;;12.75;71.19;100844.38;10231601;28;20738;-66
2022/04/30 02:13:19;;;;;;;12.02;9.95;;;;;;;12.79;70.37;100842.31;10232407;28;20047;-65
2022/04/30 02:18:22;;;;;;;13.52;11.35;;;;;;;12.64;70.88;100815.88;10229964;28;20154;-64
2022/04/30 02:23:24;;;;;;;13.20;11.27;;;;;;;12.62;71.63;100816.97;10231138;28;20477;-64
2022/04/30 02:28:26;;;;;;;11.77;10.63;;;;;;;12.81;71.38;100830.53;10231236;28;20130;-64
2022/04/30 02:33:27;;;;;;;12.80;11.40;;;;;;;12.92;71.96;100824.31;10231500;28;20580;-64
2022/04/30 02:38:29;;;;;;;12.63;10.00;;;;;;;12.90;71.42;100815.59;10229639;28;20051;-64
2022/04/30 02:43:30;;;;;;;11.75;10.35;;;;;;;12.95;71.76;100825.91;10227422;28;20054;-65
2022/04/30 02:48:32;;;;;;;10.63;9.52;;;;;;;12.99;71.17;100830.88;10234074;28;20138;-66
2022/04/30 02:53:33;;;;;;;11.23;9.63;;;;;;;12.90;71.41;100824.44;10237301;28;20058;-65
2022/04/30 03:03:54;;;;;;;9.68;8.77;;;;;;;12.91;71.13;100815.47;10231731;28;20051;-64
2022/04/30 03:08:56;;;;;;;10.23;8.63;;;;;;;12.87;71.96;100803.31;10232304;28;20127;-64
2022/04/30 03:13:57;;;;;;;9.82;8.93;;;;;;;12.99;71.66;100798.78;10232815;28;20051;-64
2022/04/30 03:24:19;;;;;;;10.93;9.82;;;;;;;12.50;72.73;100784.91;10229943;28;20069;-65
2022/04/30 03:29:21;;;;;;;9.80;8.77;;;;;;;12.66;72.30;100768.50;10231920;28;20579;-66
2022/04/30 03:34:23;;;;;;;9.80;8.80;;;;;;;12.67;72.14;100772.91;10235516;28;20071;-64
2022/04/30 03:39:24;;;;;;;11.48;10.43;;;;;;;12.41;73.09;100779.47;10236903;28;20047;-66
2022/04/30 03:44:26;;;;;;;12.48;10.48;;;;;;;12.30;73.36;100769.66;10232553;28;20050;-64
2022/04/30 03:49:28;;;;;;;12.07;9.88;;;;;;;12.27;74.01;100759.22;10229938;28;20069;-65
2022/04/30 03:54:29;;;;;;;12.90;11.05;;;;;;;12.50;74.06;100776.06;10233236;28;20778;-64
2022/04/30 03:59:31;;;;;;;12.18;10.35;;;;;;;12.51;72.90;100781.28;10231133;28;20589;-64
2022/04/30 04:04:32;;;;;;;12.65;11.32;;;;;;;12.36;73.18;100756.66;10239877;28;20996;-63
2022/04/30 04:09:34;;;;;;;11.35;10.10;;;;;;;12.22;73.12;100775.63;10237703;28;20051;-64
2022/04/30 04:19:55;;;;;;;12.27;10.90;;;;;;;11.99;74.04;100778.28;10229831;28;20057;-66
2022/04/30 04:30:16;;;;;;;12.75;11.48;;;;;;;11.96;73.89;100770.47;10233990;28;20791;-63
2022/04/30 04:35:18;;;;;;;12.70;11.48;;;;;;;11.91;73.88;100756.63;10238421;28;20050;-63
2022/04/30 04:40:20;;;;;;;11.75;10.23;;;;;;;12.09;71.79;100772.22;10262844;28;20487;-63
2022/04/30 04:45:23;;;;;;;12.00;10.90;;;;;;;11.95;71.84;100774.13;10270572;28;20066;-65
2022/04/30 04:50:25;;;;;;;12.07;10.87;;;;;;;11.86;72.02;100774.81;10235737;28;20117;-66
2022/04/30 04:55:26;;;;;;;10.40;9.32;;;;;;;11.95;70.19;100771.47;10226850;28;20055;-62
2022/04/30 05:00:28;;;;;;;11.50;9.63;;;;;;;11.94;70.16;100772.44;10225334;28;20051;-63
2022/04/30 05:05:29;;;;;;;10.93;9.77;;;;;;;11.91;70.36;100764.63;10223169;28;20047;-63
2022/04/30 05:10:31;;;;;;;10.60;9.50;;;;;;;11.86;70.26;100790.84;10218697;28;20053;-63
2022/04/30 05:15:32;;;;;;;12.07;9.90;;;;;;;11.76;71.70;100800.50;10220911;28;20065;-61
2022/04/30 05:20:34;;;;;;;13.45;10.05;;;;;;;11.77;70.57;100797.72;10222841;28;20854;-63
2022/04/30 05:25:43;;;;;;;13.48;10.68;;;;;;;11.64;71.22;100797.78;10223188;28;20105;-63
2022/04/30 05:30:44;;;;;;;11.13;10.02;;;;;;;11.57;73.05;100801.91;10218687;28;20055;-63
2022/04/30 05:35:46;;;;;;;15.18;11.00;;;;;;;11.61;72.88;100811.38;10219720;28;20059;-62
2022/04/30 05:40:47;;;;;;;12.75;10.80;;;;;;;11.55;73.06;100814.50;10219493;28;20230;-63
2022/04/30 05:45:48;;;;;;;13.30;10.68;;;;;;;11.48;73.52;100807.94;10218363;28;20104;-65
2022/04/30 05:50:51;;;;;;;12.45;11.20;;;;;;;11.62;73.88;100815.75;10219694;28;20059;-64
2022/04/30 05:55:53;;;;;;;12.32;11.02;;;;;;;11.48;74.45;100816.78;10215726;28;20121;-64
2022/04/30 06:00:54;;;;;;;12.63;11.43;;;;;;;11.55;74.06;100822.50;10218467;28;20051;-61
2022/04/30 06:05:56;;;;;;;12.15;10.88;;;;;;;11.00;75.49;100827.44;10215981;28;20612;-61
2022/04/30 06:10:58;;;;;;;13.93;11.35;;;;;;;10.83;76.13;100807.38;10214799;28;20058;-60
2022/04/30 06:15:59;;;;;;;11.30;10.10;;;;;;;11.06;76.21;100823.50;10216481;28;20202;-61
2022/04/30 06:21:01;;;;;;;10.73;9.63;;;;;;;11.18;75.88;100827.91;10214712;28;20229;-61
2022/04/30 06:26:03;;;;;;;13.45;9.63;;;;;;;11.26;75.80;100817.53;10217594;28;20050;-62
2022/04/30 06:31:04;;;;;;;10.95;9.57;;;;;;;11.24;77.05;100813.28;10216779;28;20599;-63
2022/04/30 06:36:05;;;;;;;11.38;9.60;;;;;;;11.48;75.22;100845.25;10221246;28;20052;-63
2022/04/30 06:41:07;;;;;;;10.93;9.88;;;;;;;11.36;75.76;100862.16;10216329;28;20054;-63
2022/04/30 06:46:08;;;;;;;10.82;9.80;;;;;;;11.07;78.11;100867.81;10218644;28;20054;-63
2022/04/30 06:51:10;;;;;;;10.30;9.30;;;;;;;11.41;75.73;100876.00;10211392;28;20081;-63
2022/04/30 07:01:45;;;;;;;11.43;8.57;;;;;;;11.63;74.61;100883.25;10211864;28;20059;-65
2022/04/30 07:06:47;;;;;;;;;;;;;;;11.74;74.15;100893.97;10213604;28;20706;-62
2022/04/30 07:11:48;;;;;;;8.63;7.80;;;;;;;11.61;73.96;100882.53;10214922;28;19930;-63
2022/04/30 07:16:50;;;;;;;9.75;8.75;;;;;;;11.80;73.40;100895.31;10213485;28;20062;-63
2022/04/30 07:21:51;;;;;;;9.88;9.00;;;;;;;11.57;74.21;100865.88;10214561;28;20153;-62
2022/04/30 07:26:53;;;;;;;10.77;9.77;;;;;;;11.75;73.55;100873.47;10207500;28;20050;-64
2022/04/30 07:31:59;;;;;;;9.82;8.82;;;;;;;11.84;72.69;100873.66;10212067;28;20433;-63
2022/04/30 07:37:01;;;;;;;9.55;8.65;;;;;;;11.77;74.00;100871.53;10208843;28;21239;-61
2022/04/30 07:42:03;;;;;;;8.98;8.13;;;;;;;11.90;73.92;100877.63;10213199;28;20069;-62
2022/04/30 07:47:05;;;;;;;10.00;8.73;;;;;;;11.52;75.43;100872.56;10213830;28;20062;-62
2022/04/30 07:52:08;;;;;;;9.18;8.27;;;;;;;11.56;74.13;100884.66;10208929;28;20124;-62
2022/04/30 07:57:09;;;;;;;9.13;8.23;;;;;;;11.53;74.24;100883.09;10209982;28;20052;-61
2022/04/30 08:02:11;;;;;;;8.63;7.82;;;;;;;11.63;75.10;100892.13;10214585;28;20061;-64
2022/04/30 08:07:12;;;;;;;10.30;9.20;;;;;;;11.46;75.61;100873.84;10219208;28;20612;-65
2022/04/30 08:12:14;;;;;;;10.10;9.10;;;;;;;11.61;75.99;100914.53;10219928;28;20217;-66
2022/04/30 08:17:15;;;;;;;8.85;7.88;;;;;;;11.60;75.62;100916.31;10253947;28;20063;-61
2022/04/30 08:22:16;;;;;;;7.72;7.03;;;;;;;11.69;74.26;100917.44;10218204;28;20101;-63
2022/04/30 08:27:18;;;;;;;7.30;6.60;;;;;;;11.77;74.06;100919.53;10218815;28;20162;-65
2022/04/30 08:32:24;;;;;;;7.03;6.43;;;;;;;11.72;74.12;100922.56;10158700;28;20142;-65
2022/04/30 08:37:26;;;;;;;7.72;7.03;;;;;;;11.62;75.37;100927.75;10179823;28;20049;-61
2022/04/30 08:42:30;;;;;;;6.30;5.70;;;;;;;11.54;73.87;100887.44;10177016;28;20074;-65
2022/04/30 08:47:32;;;;;;;7.65;5.60;;;;;;;11.64;74.16;100925.78;10180872;28;20050;-62
2022/04/30 08:52:33;;;;;;;7.90;6.80;;;;;;;11.70;72.87;100918.31;10178191;28;20418;-61
2022/04/30 08:57:35;;;;;;;8.57;5.97;;;;;;;11.67;72.88;100908.72;10177987;28;20052;-63
2022/04/30 09:02:37;;;;;;;8.18;6.53;;;;;;;11.50;74.35;100915.31;10177272;28;20062;-65
2022/04/30 09:07:38;;;;;;;6.75;5.72;;;;;;;11.58;73.53;100926.25;10177867;28;20062;-63
2022/04/30 09:12:41;;;;;;;6.20;5.57;;;;;;;11.47;73.65;100912.88;10177893;28;20513;-62
2022/04/30 09:17:54;;;;;;;6.80;5.40;;;;;;;11.52;74.16;100910.72;10179131;28;20215;-63
2022/04/30 09:22:56;;;;;;;5.93;5.38;;;;;;;11.64;73.01;100920.47;10175758;28;20213;-66
2022/04/30 09:27:59;;;;;;;5.85;5.28;;;;;;;11.62;73.53;100910.88;10177698;28;20127;-62
2022/04/30 09:33:07;;;;;;;6.72;6.03;;;;;;;11.62;72.60;100901.06;10177701;28;20055;-67
2022/04/30 09:38:09;;;;;;;8.10;5.75;;;;;;;11.24;72.66;100911.88;10174996;28;20051;-62
2022/04/30 09:43:17;;;;;;;7.07;6.35;;;;;;;11.23;73.72;100908.38;10175408;28;20273;-64
2022/04/30 09:53:58;;;;;;;6.18;5.35;;;;;;;11.29;72.46;100902.59;10173596;28;20048;-67
2022/04/30 09:59:04;;;;;;;7.30;6.22;;;;;;;11.23;72.78;100896.84;10173416;28;20101;-63
2022/04/30 10:04:08;;;;;;;7.25;6.43;;;;;;;11.15;72.87;100902.75;10173824;28;20047;-67
2022/04/30 10:09:13;;;;;;;7.05;6.10;;;;;;;10.97;72.97;100894.25;10173558;28;20155;-68
2022/04/30 10:14:40;;;;;;;6.82;6.13;;;;;;;11.16;73.62;100912.44;10170667;28;20054;-63
2022/04/30 10:19:58;;;;;;;6.50;5.88;;;;;;;11.32;72.50;100905.03;10171856;28;20051;-69
2022/04/30 10:25:00;;;;;;;7.05;6.45;;;;;;;11.20;72.62;100895.28;10173433;28;20071;-66
2022/04/30 10:30:02;;;;;;;7.22;5.95;;;;;;;10.70;72.86;100897.94;10179447;28;20056;-66
2022/04/30 10:35:05;;;;;;;7.75;6.70;;;;;;;10.66;73.63;100912.44;10172994;28;20055;-66
2022/04/30 10:40:11;;;;;;;6.95;6.25;;;;;;;10.77;74.13;100903.69;10176131;28;20595;-66
2022/04/30 10:45:16;;;;;;;7.88;6.82;;;;;;;10.69;73.86;100890.06;10173007;28;20050;-66
2022/04/30 10:50:25;;;;;;;7.57;6.57;;;;;;;10.73;73.42;100910.19;10317913;27;20411;-62
2022/04/30 10:55:27;;;;;;;7.25;6.53;;;;;;;10.95;73.43;100906.84;10238883;28;20152;-64
2022/04/30 11:00:28;;;;;;;7.10;6.45;;;;;;;11.17;72.77;100903.50;10235266;28;20427;-62
2022/04/30 11:05:30;;;;;;;8.60;6.85;;;;;;;11.36;72.10;100899.47;10236677;28;20316;-63
2022/04/30 11:10:32;;;;;;;8.05;7.25;;;;;;;11.35;72.40;100897.78;10233320;28;21215;-64
2022/04/30 11:15:34;;;;;;;8.27;7.40;;;;;;;11.44;72.42;100897.09;10230757;28;20478;-63
2022/04/30 11:20:36;;;;;;;8.05;7.25;;;;;;;11.25;71.78;100897.59;10238476;28;20112;-63
2022/04/30 11:25:39;;;;;;;10.88;8.45;;;;;;;11.22;72.68;100898.69;10233712;28;21187;-62
2022/04/30 11:30:43;;;;;;;8.70;7.83;;;;;;;11.34;72.21;100891.59;10241365;28;20054;-63
2022/04/30 11:35:53;;;;;;;9.43;7.57;;;;;;;11.48;71.56;100887.91;10236861;28;20157;-62
2022/04/30 11:41:05;;;;;;;9.40;8.20;;;;;;;11.26;71.53;100862.84;10240578;28;20060;-63
2022/04/30 11:46:06;;;;;;;8.75;7.60;;;;;;;11.41;71.89;100878.66;10276347;28;20133;-63
2022/04/30 11:51:08;;;;;;;10.05;8.48;;;;;;;11.61;71.18;100885.19;10235558;28;20045;-63
2022/04/30 11:56:10;;;;;;;11.02;8.65;;;;;;;11.64;70.03;100872.47;10235414;28;20084;-63
2022/04/30 12:01:23;;;;;;;8.60;7.72;;;;;;;11.95;68.79;100867.50;10211807;28;20578;-63
2022/04/30 12:06:26;;;;;;;8.93;7.78;;;;;;;12.01;68.71;100867.03;10203448;28;20061;-63
2022/04/30 12:11:27;;;;;;;8.02;6.82;;;;;;;12.11;68.10;100869.00;10208390;28;20123;-63
2022/04/30 12:16:37;;;;;;;9.13;7.72;;;;;;;12.83;65.99;100870.47;10205486;28;20560;-64
2022/04/30 12:27:05;;;;;;;9.52;8.32;;;;;;;13.61;63.07;100849.88;10217058;28;20175;-60
2022/04/30 12:32:07;;;;;;;8.05;7.35;;;;;;;13.60;61.89;100857.06;10218250;28;20181;-61
2022/04/30 12:37:09;;;;;;;8.07;6.85;;;;;;;13.52;61.97;100856.00;10207899;28;20498;-62
2022/04/30 12:42:11;;;;;;;8.50;7.22;;;;;;;13.07;62.82;100856.97;10206248;28;20643;-62
2022/04/30 12:47:12;;;;;;;7.55;6.85;;;;;;;13.48;61.47;100835.84;10209664;28;20085;-60
2022/04/30 12:52:14;;;;;;;8.52;7.47;;;;;;;13.47;61.27;100842.19;10208723;28;20227;-62
2022/04/30 12:57:15;;;;;;;8.23;6.70;;;;;;;13.51;61.79;100847.16;10209497;28;20076;-62
2022/04/30 13:02:17;;;;;;;7.68;6.97;;;;;;;13.95;61.17;100841.69;10201116;28;20193;-62
2022/04/30 13:07:19;;;;;;;7.93;7.13;;;;;;;14.45;59.96;100832.91;10199059;28;20046;-60
2022/04/30 13:17:40;;;;;;;8.35;7.40;;;;;;;14.58;56.92;100763.03;10210002;28;20050;-60
2022/04/30 13:22:41;;;;;;;8.85;7.95;;;;;;;14.99;56.48;100809.41;10205861;28;20055;-60
2022/04/30 13:27:43;;;;;;;9.32;7.65;;;;;;;15.08;56.90;100813.09;10206538;28;20051;-60
2022/04/30 13:32:46;;;;;;;9.73;7.90;;;;;;;15.20;56.78;100810.13;10206569;28;20138;-59
2022/04/30 13:37:48;;;;;;;8.70;7.80;;;;;;;15.34;56.62;100802.66;10212902;28;20606;-60
2022/04/30 13:42:49;;;;;;;8.10;7.03;;;;;;;15.15;56.88;100806.19;10214647;28;20470;-60
2022/04/30 13:47:52;;;;;;;9.45;7.53;;;;;;;15.18;56.49;100800.56;10204881;28;20055;-61
2022/04/30 13:52:53;;;;;;;10.68;8.32;;;;;;;14.78;56.91;100790.75;10209038;28;20142;-61
2022/04/30 13:57:54;;;;;;;9.88;8.77;;;;;;;14.79;58.73;100795.13;10207927;28;20065;-60
2022/04/30 14:02:56;;;;;;;9.32;8.45;;;;;;;14.90;57.72;100802.22;10194714;28;20444;-61
2022/04/30 14:07:58;;;;;;;8.82;8.02;;;;;;;15.05;56.81;100802.66;10207534;28;20046;-60
2022/04/30 14:18:21;;;;;;;10.98;9.88;;;;;;;15.28;56.99;100800.53;10202299;28;20061;-61
2022/04/30 14:23:22;;;;;;;10.68;7.90;;;;;;;15.29;56.63;100784.31;10191035;28;20343;-61
2022/04/30 14:28:24;;;;;;;9.13;7.68;;;;;;;15.13;57.36;100790.25;10195018;28;20055;-61
2022/04/30 14:33:25;;;;;;;10.10;8.80;;;;;;;15.10;55.29;100789.66;10197388;28;20142;-61
2022/04/30 14:38:27;;;;;;;8.38;7.57;;;;;;;15.10;56.87;100801.25;10197771;28;20201;-60
2022/04/30 14:43:28;;;;;;;9.75;8.35;;;;;;;15.31;56.63;100803.81;10194647;28;20245;-60
2022/04/30 14:48:30;;;;;;;9.35;8.30;;;;;;;15.48;56.10;100794.19;10189441;28;20130;-59
2022/04/30 14:53:31;;;;;;;8.95;8.07;;;;;;;14.83;57.24;100786.69;10187758;28;20062;-62
2022/04/30 14:58:33;;;;;;;8.55;7.75;;;;;;;14.48;57.47;100774.56;10193816;28;20171;-60
2022/04/30 15:03:35;;;;;;;9.82;8.10;;;;;;;14.46;58.12;100795.28;10197245;28;20062;-61
2022/04/30 15:08:36;;;;;;;10.45;9.45;;;;;;;14.52;58.19;100803.75;10196149;28;20113;-61
2022/04/30 15:13:38;;;;;;;10.75;8.48;;;;;;;14.59;57.51;100791.50;10198472;28;20576;-61
2022/04/30 15:18:39;;;;;;;9.65;8.75;;;;;;;14.67;56.99;100781.00;10201839;28;20134;-61
2022/04/30 15:23:41;;;;;;;8.35;7.55;;;;;;;14.61;57.38;100786.91;10195428;28;20715;-61
2022/04/30 15:28:49;;;;;;;8.38;7.63;;;;;;;14.65;57.22;100796.34;10163891;28;20147;-61
2022/04/30 15:34:14;;;;;;;8.77;7.88;;;;;;;14.76;57.10;100790.06;10151702;28;20047;-61
2022/04/30 15:39:15;;;;;;;7.15;6.50;;;;;;;14.91;56.52;100785.97;10203561;28;20077;-61
2022/04/30 15:44:17;;;;;;;10.10;8.05;;;;;;;14.62;57.08;100785.91;10201477;28;20053;-60
2022/04/30 15:54:39;;;;;;;8.48;7.53;;;;;;;14.53;58.20;100765.28;10220545;28;20782;-62
2022/04/30 15:59:47;;;;;;;8.90;7.97;;;;;;;14.72;57.54;100778.75;10170376;28;20063;-61
2022/04/30 16:04:48;;;;;;;9.48;8.50;;;;;;;14.67;57.08;100778.31;10203420;28;20304;-61
2022/04/30 16:09:50;;;;;;;9.30;7.88;;;;;;;14.56;57.49;100773.03;10206558;28;20051;-60
2022/04/30 16:14:51;;;;;;;9.20;7.68;;;;;;;14.42;57.78;100772.41;10201912;28;20126;-59
2022/04/30 16:19:53;;;;;;;11.45;8.27;;;;;;;14.07;58.56;100773.69;10202919;28;20059;-60
2022/04/30 16:24:54;;;;;;;9.20;8.38;;;;;;;14.18;58.39;100772.75;10205317;28;20157;-60
2022/04/30 16:29:58;;;;;;;9.23;7.82;;;;;;;14.09;58.05;100763.69;10202453;28;20388;-60
2022/04/30 16:35:00;;;;;;;;;;;;;;;14.01;58.74;100771.56;10205282;28;20133;-61
2022/04/30 16:40:01;;;;;;;10.18;8.30;;;;;;;13.82;58.70;100760.75;10206679;28;20415;-61
2022/04/30 16:45:04;;;;;;;9.23;8.20;;;;;;;13.65;58.37;100748.84;10202316;28;20233;-60
2022/04/30 16:50:06;;;;;;;9.77;8.00;;;;;;;13.38;60.07;100763.56;10196337;28;20138;-59
2022/04/30 17:00:38;;;;;;;8.43;7.50;;;;;;;13.54;59.04;100760.44;10222192;28;20198;-60
2022/04/30 17:05:40;;;;;;;8.90;7.28;;;;;;;13.68;58.92;100767.28;10196038;28;20055;-60
2022/04/30 17:10:41;;;;;;;8.50;7.60;;;;;;;13.73;58.83;100763.22;10201756;28;20102;-61
2022/04/30 17:15:43;;;;;;;8.32;7.53;;;;;;;13.63;59.23;100742.75;10200707;28;20112;-60
2022/04/30 17:20:47;;;;;;;8.00;7.13;;;;;;;13.71;59.20;100748.31;10201505;28;20088;-61
2022/04/30 17:25:48;;;;;;;9.50;7.70;;;;;;;13.22;60.57;100732.72;10223507;23;20223;-60
2022/04/30 17:41:31;;;;;;;13.60;8.45;;;;;;;13.35;60.23;100751.31;10208246;28;20047;-62
2022/04/30 17:46:33;;;;;;;10.45;7.82;;;;;;;13.15;60.08;100741.38;10204312;28;20054;-61
2022/04/30 17:51:35;;;;;;;9.85;8.75;;;;;;;12.94;59.81;100734.22;10199413;28;20117;-64
2022/04/30 17:56:39;;;;;;;9.63;6.57;;;;;;;13.00;60.99;100762.22;10202946;28;20079;-60
2022/04/30 18:01:42;;;;;;;9.80;7.55;;;;;;;12.75;60.74;100742.88;10197689;28;20130;-62
2022/04/30 18:06:43;;;;;;;10.68;7.50;;;;;;;12.72;61.07;100751.97;10196351;28;20061;-60
2022/04/30 18:11:45;;;;;;;8.20;6.75;;;;;;;12.75;60.33;100772.25;10200030;28;20082;-60
2022/04/30 18:16:46;;;;;;;8.55;6.85;;;;;;;12.83;60.82;100780.47;10198665;28;21163;-60
2022/04/30 18:21:48;;;;;;;10.98;8.18;;;;;;;12.92;60.55;100784.22;10197157;28;20071;-60
2022/04/30 18:26:50;;;;;;;9.05;7.28;;;;;;;12.81;60.52;100771.75;10198453;28;20153;-60
2022/04/30 18:31:52;;;;;;;9.98;8.07;;;;;;;12.86;60.76;100790.91;10203224;28;20181;-62
2022/04/30 18:36:56;;;;;;;12.75;8.48;;;;;;;12.77;60.62;100780.16;10206816;28;20130;-62
2022/04/30 18:41:59;;;;;;;10.85;8.50;;;;;;;12.40;60.77;100777.78;10199887;28;21827;-61
2022/04/30 18:47:01;;;;;;;9.90;7.57;;;;;;;12.23;62.29;100789.78;10195286;28;21068;-62
2022/04/30 18:52:04;;;;;;;10.88;7.43;;;;;;;12.51;61.75;100804.47;10200613;28;20473;-61
2022/04/30 19:02:26;;;;;;;7.68;6.90;;;;;;;12.56;62.10;100820.97;10201783;28;20050;-60
2022/04/30 19:07:28;;;;;;;8.30;7.20;;;;;;;12.51;62.06;100804.47;10204330;28;21000;-60
2022/04/30 19:12:30;;;;;;;8.38;7.20;;;;;;;12.60;61.59;100817.09;10210260;28;20128;-60
2022/04/30 19:17:32;;;;;;;7.50;6.57;;;;;;;12.38;61.70;100824.16;10210489;28;20134;-60
2022/04/30 19:22:33;;;;;;;7.85;6.32;;;;;;;12.37;62.17;100817.09;10207664;28;20122;-61
2022/04/30 19:27:37;;;;;;;7.82;6.45;;;;;;;12.26;61.95;100803.72;10205573;28;20493;-61
2022/04/30 19:32:38;;;;;;;8.90;6.83;;;;;;;12.38;61.21;100826.81;10207314;28;20153;-62
2022/04/30 19:37:41;;;;;;;6.40;5.80;;;;;;;12.38;61.43;100824.16;10202082;28;20182;-61
2022/04/30 19:42:44;;;;;;;8.50;6.32;;;;;;;12.28;60.93;100814.28;10193931;28;20091;-62
2022/04/30 19:47:46;;;;;;;9.52;6.20;;;;;;;12.33;61.29;100830.81;10195800;28;20062;-61
2022/04/30 19:52:48;;;;;;;8.38;6.57;;;;;;;12.31;61.29;100811.38;10195149;28;20081;-62
2022/04/30 19:57:50;;;;;;;7.40;6.07;;;;;;;12.30;61.81;100807.88;10196312;28;20112;-61
2022/04/30 20:02:53;;;;;;;10.18;6.05;;;;;;;12.16;61.61;100805.44;10196831;28;20051;-63
2022/04/30 20:07:54;;;;;;;7.10;6.35;;;;;;;12.14;62.16;100799.38;10192354;28;20051;-61
2022/04/30 20:18:16;;;;;;;10.43;6.38;;;;;;;12.31;61.37;100790.91;10194714;28;20814;-61
2022/04/30 20:23:18;;;;;;;5.85;5.10;;;;;;;12.12;61.88;100795.97;10196966;28;20051;-61
2022/04/30 20:28:19;;;;;;;10.95;6.63;;;;;;;12.11;62.25;100791.59;10197072;28;20545;-61
2022/04/30 20:38:41;;;;;;;9.80;6.22;;;;;;;11.76;63.48;100789.84;10213592;28;20059;-65
2022/04/30 20:43:42;;;;;;;7.82;6.07;;;;;;;11.99;62.76;100796.94;10210879;28;20480;-61
2022/04/30 20:48:46;;;;;;;6.93;5.43;;;;;;;12.11;62.88;100794.28;10204316;28;20145;-62
2022/04/30 20:53:47;;;;;;;7.22;5.30;;;;;;;11.78;62.70;100787.88;10204555;28;20252;-63
2022/04/30 20:58:53;;;;;;;6.75;6.05;;;;;;;11.82;63.51;100789.38;10194402;28;20121;-62
2022/04/30 21:03:59;;;;;;;8.48;5.50;;;;;;;11.84;63.28;100780.28;10161267;28;20441;-61
2022/04/30 21:09:01;;;;;;;8.18;5.55;;;;;;;11.97;62.86;100782.03;10218589;28;20584;-61
2022/04/30 21:14:04;;;;;;;8.52;5.40;;;;;;;11.73;62.56;100758.06;10220612;28;20708;-62
2022/04/30 21:19:06;;;;;;;6.88;6.00;;;;;;;11.64;62.19;100756.97;10215993;28;20079;-61
2022/04/30 21:24:08;;;;;;;6.65;5.70;;;;;;;11.77;61.92;100754.19;10217643;28;20480;-61
2022/04/30 21:29:09;;;;;;;6.82;6.07;;;;;;;11.82;61.64;100770.69;10220429;28;20126;-61
2022/04/30 21:34:11;;;;;;;8.30;5.57;;;;;;;11.88;61.99;100762.22;10226881;28;20054;-61
2022/04/30 21:39:13;;;;;;;7.28;5.75;;;;;;;11.72;62.25;100759.03;10211305;28;20117;-60
2022/04/30 21:44:14;;;;;;;9.00;5.68;;;;;;;11.73;62.52;100753.56;10211362;28;20058;-61
2022/04/30 21:49:16;;;;;;;5.35;4.85;;;;;;;11.76;62.05;100741.84;10218358;28;20669;-61
2022/04/30 21:54:22;;;;;;;5.10;4.57;;;;;;;11.73;62.61;100753.56;10209338;28;20134;-61
2022/04/30 22:04:43;;;;;;;6.50;5.53;;;;;;;11.76;61.96;100742.66;10209261;28;20526;-60
2022/04/30 22:09:48;;;;;;;6.32;5.70;;;;;;;11.49;62.67;100724.31;10208972;28;20186;-62
2022/04/30 22:14:50;;;;;;;8.43;5.40;;;;;;;11.54;62.15;100697.31;10222881;28;20344;-63
2022/04/30 22:19:52;;;;;;;7.30;5.40;;;;;;;11.76;61.31;100734.66;10215233;28;20067;-60
2022/04/30 22:24:53;;;;;;;5.45;4.95;;;;;;;11.81;61.13;100744.97;10218273;28;20152;-61
2022/04/30 22:29:55;;;;;;;6.13;5.47;;;;;;;11.65;61.51;100734.66;10217821;28;20501;-61
2022/04/30 22:34:56;;;;;;;6.35;5.70;;;;;;;11.65;61.44;100751.50;10220094;28;20417;-61
2022/04/30 22:45:17;;;;;;;7.57;5.65;;;;;;;11.80;60.62;100769.94;10215143;28;20046;-61
2022/04/30 22:50:20;;;;;;;7.32;5.85;;;;;;;11.77;60.64;100772.84;10222264;28;20630;-61
2022/04/30 22:55:22;;;;;;;6.45;5.15;;;;;;;11.77;60.47;100775.50;10214220;28;22420;-61
2022/04/30 23:00:24;;;;;;;7.00;5.63;;;;;;;11.83;60.02;100775.06;10209920;28;20082;-61
2022/04/30 23:05:26;;;;;;;6.15;4.78;;;;;;;11.84;60.41;100760.75;10210841;28;20517;-61
2022/04/30 23:10:28;;;;;;;8.43;5.50;;;;;;;11.89;59.86;100757.72;10213937;28;20154;-60
2022/04/30 23:15:30;;;;;;;6.32;5.43;;;;;;;11.82;60.03;100757.34;10215288;28;20606;-60
2022/04/30 23:20:31;;;;;;;5.78;5.18;;;;;;;11.76;60.26;100758.66;10211575;28;21123;-60
2022/04/30 23:25:33;;;;;;;8.15;5.05;;;;;;;11.79;60.66;100762.94;10212754;28;20083;-61
2022/04/30 23:30:34;;;;;;;6.30;4.75;;;;;;;11.79;60.13;100752.25;10213472;28;20125;-62
2022/04/30 23:35:36;;;;;;;6.10;4.80;;;;;;;11.74;60.50;100757.09;10216184;28;20117;-60
2022/04/30 23:40:37;;;;;;;6.28;4.85;;;;;;;11.88;60.43;100756.03;10216018;28;20572;-60
2022/04/30 23:45:39;;;;;;;6.13;5.50;;;;;;;11.83;60.32;100751.91;10212741;28;20483;-62
2022/04/30 23:50:40;;;;;;;5.68;5.10;;;;;;;11.75;60.28;100756.13;10212675;28;20780;-62
2022/04/30 23:55:42;;;;;;;5.75;5.00;;;;;;;11.79;60.20;100746.94;10219720;28;20765;-61
